createdAt,value
2023-02-08T00:00:51.463Z,0.88
2023-02-08T00:06:59.959Z,0.87
2023-02-08T00:12:47.819Z,0.92
2023-02-08T00:18:28.025Z,0.95
2023-02-08T00:23:57.097Z,0.97
2023-02-08T00:29:53.528Z,0.97
2023-02-08T00:35:47.561Z,1.03
2023-02-08T00:41:10.126Z,1.07
2023-02-08T00:46:26.483Z,1.03
2023-02-08T00:51:45.659Z,1.03
2023-02-08T00:56:56.061Z,1.05
2023-02-08T01:02:07.807Z,1.04
2023-02-08T01:07:48.041Z,1.03
2023-02-08T01:13:36.865Z,1.05
2023-02-08T01:19:13.628Z,1.05
2023-02-08T01:25:05.078Z,1.02
2023-02-08T01:30:34.934Z,1.04
2023-02-08T01:36:07.015Z,1.06
2023-02-08T01:41:31.799Z,1.06
2023-02-08T01:47:35.808Z,1.12
2023-02-08T01:53:19.306Z,1.22
2023-02-08T01:58:58.887Z,1.28
2023-02-08T02:04:36.598Z,1.31
2023-02-08T02:10:20.730Z,1.33
2023-02-08T02:15:34.510Z,1.33
2023-02-08T02:21:42.349Z,1.32
2023-02-08T02:27:49.465Z,1.29
2023-02-08T02:33:33.775Z,1.27
2023-02-08T02:39:36.552Z,1.25
2023-02-08T02:45:41.929Z,1.23
2023-02-08T02:51:41.778Z,1.17
2023-02-08T02:57:42.006Z,1.15
2023-02-08T03:04:06.860Z,1.15
2023-02-08T03:10:17.115Z,1.15
2023-02-08T03:33:05.065Z,1.19
2023-02-08T03:39:31.231Z,1.16
2023-02-08T03:45:17.953Z,1.24
2023-02-08T03:51:48.447Z,1.36
2023-02-08T03:58:16.353Z,1.44
2023-02-08T04:04:24.269Z,1.43
2023-02-08T04:10:50.473Z,1.41
2023-02-08T04:17:11.681Z,1.42
2023-02-08T04:23:31.091Z,1.38
2023-02-08T04:29:54.691Z,1.34
2023-02-08T04:36:34.475Z,1.32
2023-02-08T04:42:53.749Z,1.30
2023-02-08T05:03:34.192Z,1.27
2023-02-08T06:26:15.054Z,1.08
2023-02-08T06:32:35.472Z,0.99
2023-02-08T06:39:00.247Z,0.89
2023-02-08T06:45:58.266Z,0.87
2023-02-08T06:51:57.074Z,0.96
2023-02-08T08:09:59.336Z,1.75
2023-02-08T08:16:24.355Z,1.76
2023-02-08T08:22:32.884Z,1.91
2023-02-08T08:28:47.244Z,1.89
2023-02-08T08:35:15.139Z,1.91
2023-02-08T08:49:37.044Z,2.10
2023-02-08T09:55:22.923Z,2.78
2023-02-08T10:01:43.522Z,2.86
2023-02-08T10:08:11.033Z,2.84
2023-02-08T11:21:01.523Z,3.22
2023-02-08T11:27:03.044Z,3.37
2023-02-08T11:33:28.276Z,3.52
2023-02-08T11:39:18.358Z,3.40
2023-02-08T11:45:26.977Z,3.34
2023-02-08T11:51:03.834Z,3.36
2023-02-08T11:56:53.961Z,3.46
2023-02-08T12:03:04.095Z,3.59
2023-02-08T12:09:38.248Z,3.76
2023-02-08T12:15:48.165Z,4.14
2023-02-08T13:46:43.727Z,5.68
2023-02-08T13:53:22.722Z,5.55
2023-02-08T13:58:00.914Z,5.33
2023-02-08T14:11:21.797Z,6.11
2023-02-08T14:24:46.824Z,6.22
2023-02-08T14:30:45.787Z,5.33
2023-02-08T14:36:45.553Z,4.72
2023-02-08T14:43:00.790Z,4.27
2023-02-08T14:56:27.609Z,3.76
2023-02-08T15:02:34.284Z,3.57
2023-02-08T15:08:18.607Z,3.47
2023-02-08T15:14:33.741Z,3.38
2023-02-08T15:21:01.032Z,3.27
2023-02-08T15:27:04.190Z,3.14
2023-02-08T15:32:44.901Z,2.98
2023-02-08T15:39:01.174Z,2.85
2023-02-08T15:44:44.588Z,3.31
2023-02-08T15:50:07.474Z,6.32
2023-02-08T15:55:18.141Z,8.57
2023-02-08T16:00:39.933Z,9.73
2023-02-08T16:05:56.186Z,8.41
2023-02-08T16:11:49.283Z,6.62
2023-02-08T16:17:40.846Z,5.31
2023-02-08T16:23:59.406Z,4.37
2023-02-08T16:29:49.147Z,3.57
2023-02-08T16:36:18.878Z,3.07
2023-02-08T16:43:04.593Z,2.64
2023-02-08T16:49:29.276Z,2.29
2023-02-08T16:55:14.821Z,2.05
2023-02-08T17:02:59.191Z,1.84
2023-02-08T17:09:10.572Z,1.72
2023-02-08T17:15:28.729Z,1.65
2023-02-08T17:21:34.104Z,1.49
2023-02-08T17:27:47.134Z,1.37
2023-02-08T17:34:04.226Z,1.20
2023-02-08T17:40:21.399Z,1.07
2023-02-08T17:45:52.166Z,0.98
2023-02-08T17:51:33.087Z,0.87
2023-02-08T17:57:56.094Z,0.77
2023-02-08T18:11:43.590Z,0.68
2023-02-08T18:18:09.195Z,0.67
2023-02-08T18:24:25.753Z,0.72
2023-02-08T18:30:50.362Z,0.60
2023-02-08T18:36:28.479Z,0.50
2023-02-08T18:42:28.526Z,0.43
2023-02-08T18:49:22.224Z,0.58
2023-02-08T18:55:59.344Z,0.47
2023-02-08T19:46:28.431Z,-0.22
2023-02-08T19:52:42.908Z,-0.34
2023-02-08T19:59:10.536Z,-0.34
2023-02-08T20:05:38.595Z,-0.42
2023-02-08T20:11:57.309Z,-0.49
2023-02-08T20:18:07.764Z,-0.61
2023-02-08T20:24:15.302Z,-0.78
2023-02-08T20:30:21.607Z,-0.98
2023-02-08T20:35:48.211Z,-0.95
2023-02-08T20:41:54.820Z,-0.96
2023-02-08T20:48:37.976Z,-0.98
2023-02-08T21:02:02.346Z,-1.12
2023-02-08T21:08:02.463Z,-1.21
2023-02-08T21:28:39.090Z,-1.43
2023-02-08T21:34:56.879Z,-1.52
2023-02-08T22:02:08.705Z,-1.67
2023-02-08T22:14:32.239Z,-1.73
2023-02-08T22:20:46.799Z,-1.83
2023-02-08T22:27:01.761Z,-1.91
2023-02-08T22:33:21.605Z,-1.91
2023-02-08T22:39:48.213Z,-1.91
2023-02-08T22:45:42.395Z,-1.94
2023-02-08T22:52:11.051Z,-2.01
2023-02-08T23:03:03.039Z,-2.14
2023-02-08T23:08:52.669Z,-2.22
2023-02-08T23:15:07.322Z,-2.39
2023-02-08T23:43:06.944Z,-2.97
2023-02-08T23:49:15.219Z,-3.11
2023-02-08T23:54:59.001Z,-3.24
